sensor_id;sensor_type;location;lat;lon;timestamp;P1;durP1;ratioP1;P2;durP2;ratioP2
35919;SDS011;36160;53.370;-6.196;2022-12-18T00:01:28;17.40;;;9.80;;
35919;SDS011;36160;53.370;-6.196;2022-12-18T00:03:57;17.38;;;9.57;;
35919;SDS011;36160;53.370;-6.196;2022-12-18T00:06:25;15.32;;;9.30;;
35919;SDS011;36160;53.370;-6.196;2022-12-18T00:08:54;15.63;;;9.85;;
35919;SDS011;36160;53.370;-6.196;2022-12-18T00:11:23;19.35;;;9.07;;
35919;SDS011;36160;53.370;-6.196;2022-12-18T00:13:50;22.35;;;11.98;;
35919;SDS011;36160;53.370;-6.196;2022-12-18T00:16:20;18.38;;;8.35;;
35919;SDS011;36160;53.370;-6.196;2022-12-18T00:18:48;17.50;;;8.60;;
35919;SDS011;36160;53.370;-6.196;2022-12-18T00:21:16;14.60;;;7.30;;
35919;SDS011;36160;53.370;-6.196;2022-12-18T00:23:42;15.73;;;8.18;;
35919;SDS011;36160;53.370;-6.196;2022-12-18T00:26:13;25.55;;;7.78;;
35919;SDS011;36160;53.370;-6.196;2022-12-18T00:28:40;20.77;;;9.18;;
35919;SDS011;36160;53.370;-6.196;2022-12-18T00:31:08;17.55;;;10.30;;
35919;SDS011;36160;53.370;-6.196;2022-12-18T00:33:36;19.23;;;10.18;;
35919;SDS011;36160;53.370;-6.196;2022-12-18T00:36:06;21.20;;;11.15;;
35919;SDS011;36160;53.370;-6.196;2022-12-18T00:38:36;17.98;;;9.43;;
35919;SDS011;36160;53.370;-6.196;2022-12-18T00:41:04;21.13;;;8.57;;
35919;SDS011;36160;53.370;-6.196;2022-12-18T00:43:30;17.40;;;8.07;;
35919;SDS011;36160;53.370;-6.196;2022-12-18T00:45:56;21.33;;;9.40;;
35919;SDS011;36160;53.370;-6.196;2022-12-18T00:48:22;20.13;;;8.32;;
35919;SDS011;36160;53.370;-6.196;2022-12-18T00:50:48;20.02;;;8.02;;
35919;SDS011;36160;53.370;-6.196;2022-12-18T00:53:15;16.70;;;8.25;;
35919;SDS011;36160;53.370;-6.196;2022-12-18T00:55:42;13.98;;;6.95;;
35919;SDS011;36160;53.370;-6.196;2022-12-18T00:58:08;17.95;;;7.88;;
35919;SDS011;36160;53.370;-6.196;2022-12-18T01:00:35;22.48;;;8.13;;
35919;SDS011;36160;53.370;-6.196;2022-12-18T01:03:01;23.40;;;7.18;;
35919;SDS011;36160;53.370;-6.196;2022-12-18T01:05:27;18.38;;;9.05;;
35919;SDS011;36160;53.370;-6.196;2022-12-18T01:07:53;18.60;;;8.15;;
35919;SDS011;36160;53.370;-6.196;2022-12-18T01:10:18;13.40;;;7.85;;
35919;SDS011;36160;53.370;-6.196;2022-12-18T01:12:44;17.02;;;9.13;;
35919;SDS011;36160;53.370;-6.196;2022-12-18T01:15:10;22.33;;;9.43;;
35919;SDS011;36160;53.370;-6.196;2022-12-18T01:17:37;23.23;;;8.82;;
35919;SDS011;36160;53.370;-6.196;2022-12-18T01:20:03;16.65;;;7.90;;
35919;SDS011;36160;53.370;-6.196;2022-12-18T01:22:29;14.65;;;7.78;;
35919;SDS011;36160;53.370;-6.196;2022-12-18T01:24:55;15.32;;;8.80;;
35919;SDS011;36160;53.370;-6.196;2022-12-18T01:27:20;11.30;;;6.97;;
35919;SDS011;36160;53.370;-6.196;2022-12-18T01:29:46;16.27;;;7.75;;
35919;SDS011;36160;53.370;-6.196;2022-12-18T01:32:12;14.43;;;6.38;;
35919;SDS011;36160;53.370;-6.196;2022-12-18T01:34:37;16.35;;;7.75;;
35919;SDS011;36160;53.370;-6.196;2022-12-18T01:37:04;13.05;;;6.78;;
35919;SDS011;36160;53.370;-6.196;2022-12-18T01:39:30;12.90;;;7.75;;
35919;SDS011;36160;53.370;-6.196;2022-12-18T01:41:57;15.70;;;7.22;;
35919;SDS011;36160;53.370;-6.196;2022-12-18T01:49:53;18.48;;;8.77;;
35919;SDS011;36160;53.370;-6.196;2022-12-18T01:52:20;15.93;;;7.18;;
35919;SDS011;36160;53.370;-6.196;2022-12-18T01:54:47;15.82;;;6.78;;
35919;SDS011;36160;53.370;-6.196;2022-12-18T01:57:15;12.32;;;6.90;;
35919;SDS011;36160;53.370;-6.196;2022-12-18T01:59:41;10.52;;;5.07;;
35919;SDS011;36160;53.370;-6.196;2022-12-18T02:02:09;15.27;;;5.07;;
35919;SDS011;36160;53.370;-6.196;2022-12-18T02:04:36;15.63;;;5.07;;
35919;SDS011;36160;53.370;-6.196;2022-12-18T02:09:35;13.60;;;3.92;;
35919;SDS011;36160;53.370;-6.196;2022-12-18T02:12:11;13.60;;;2.90;;
35919;SDS011;36160;53.370;-6.196;2022-12-18T02:14:59;12.93;;;3.25;;
35919;SDS011;36160;53.370;-6.196;2022-12-18T02:17:37;19.77;;;2.97;;
35919;SDS011;36160;53.370;-6.196;2022-12-18T02:20:14;14.32;;;3.85;;
35919;SDS011;36160;53.370;-6.196;2022-12-18T02:22:55;17.02;;;3.08;;
35919;SDS011;36160;53.370;-6.196;2022-12-18T02:28:20;19.52;;;3.70;;
35919;SDS011;36160;53.370;-6.196;2022-12-18T02:30:48;26.15;;;3.13;;
35919;SDS011;36160;53.370;-6.196;2022-12-18T02:33:17;17.75;;;3.10;;
35919;SDS011;36160;53.370;-6.196;2022-12-18T02:35:45;17.00;;;3.42;;
35919;SDS011;36160;53.370;-6.196;2022-12-18T02:38:13;24.88;;;3.88;;
35919;SDS011;36160;53.370;-6.196;2022-12-18T02:40:40;22.67;;;4.15;;
35919;SDS011;36160;53.370;-6.196;2022-12-18T02:43:09;34.42;;;5.18;;
35919;SDS011;36160;53.370;-6.196;2022-12-18T02:45:45;20.50;;;3.50;;
35919;SDS011;36160;53.370;-6.196;2022-12-18T02:48:32;22.75;;;3.30;;
35919;SDS011;36160;53.370;-6.196;2022-12-18T02:51:04;20.60;;;4.07;;
35919;SDS011;36160;53.370;-6.196;2022-12-18T02:53:56;22.50;;;3.50;;
35919;SDS011;36160;53.370;-6.196;2022-12-18T02:56:35;12.43;;;4.10;;
35919;SDS011;36160;53.370;-6.196;2022-12-18T02:59:13;16.17;;;2.88;;
35919;SDS011;36160;53.370;-6.196;2022-12-18T03:02:31;13.98;;;4.25;;
35919;SDS011;36160;53.370;-6.196;2022-12-18T03:04:46;19.02;;;4.30;;
35919;SDS011;36160;53.370;-6.196;2022-12-18T03:07:17;20.45;;;4.38;;
35919;SDS011;36160;53.370;-6.196;2022-12-18T03:09:50;17.80;;;2.95;;
35919;SDS011;36160;53.370;-6.196;2022-12-18T03:12:20;25.17;;;5.65;;
35919;SDS011;36160;53.370;-6.196;2022-12-18T03:17:32;27.25;;;6.07;;
35919;SDS011;36160;53.370;-6.196;2022-12-18T03:20:01;15.38;;;3.63;;
35919;SDS011;36160;53.370;-6.196;2022-12-18T03:22:31;21.25;;;4.00;;
35919;SDS011;36160;53.370;-6.196;2022-12-18T03:25:00;22.35;;;4.00;;
35919;SDS011;36160;53.370;-6.196;2022-12-18T03:27:29;11.55;;;3.63;;
35919;SDS011;36160;53.370;-6.196;2022-12-18T03:30:03;23.42;;;6.60;;
35919;SDS011;36160;53.370;-6.196;2022-12-18T03:32:42;20.33;;;3.88;;
35919;SDS011;36160;53.370;-6.196;2022-12-18T03:35:25;12.45;;;3.55;;
35919;SDS011;36160;53.370;-6.196;2022-12-18T03:37:54;49.55;;;8.02;;
35919;SDS011;36160;53.370;-6.196;2022-12-18T03:40:21;17.23;;;4.03;;
35919;SDS011;36160;53.370;-6.196;2022-12-18T03:45:53;17.75;;;5.47;;
35919;SDS011;36160;53.370;-6.196;2022-12-18T03:48:30;21.10;;;4.63;;
35919;SDS011;36160;53.370;-6.196;2022-12-18T03:51:08;19.88;;;6.18;;
35919;SDS011;36160;53.370;-6.196;2022-12-18T03:53:48;15.43;;;5.78;;
35919;SDS011;36160;53.370;-6.196;2022-12-18T03:56:18;21.67;;;7.82;;
35919;SDS011;36160;53.370;-6.196;2022-12-18T03:58:47;29.35;;;6.35;;
35919;SDS011;36160;53.370;-6.196;2022-12-18T04:01:15;18.08;;;6.38;;
35919;SDS011;36160;53.370;-6.196;2022-12-18T04:03:42;16.40;;;6.03;;
35919;SDS011;36160;53.370;-6.196;2022-12-18T04:06:11;20.98;;;7.10;;
35919;SDS011;36160;53.370;-6.196;2022-12-18T04:08:38;24.17;;;6.72;;
35919;SDS011;36160;53.370;-6.196;2022-12-18T04:11:05;22.20;;;7.88;;
35919;SDS011;36160;53.370;-6.196;2022-12-18T04:13:35;24.38;;;8.32;;
35919;SDS011;36160;53.370;-6.196;2022-12-18T04:16:02;27.15;;;7.10;;
35919;SDS011;36160;53.370;-6.196;2022-12-18T04:18:28;20.85;;;7.30;;
35919;SDS011;36160;53.370;-6.196;2022-12-18T04:20:54;30.00;;;9.57;;
35919;SDS011;36160;53.370;-6.196;2022-12-18T04:23:19;23.73;;;9.35;;
35919;SDS011;36160;53.370;-6.196;2022-12-18T04:25:46;22.88;;;8.02;;
35919;SDS011;36160;53.370;-6.196;2022-12-18T04:28:12;23.40;;;8.75;;
35919;SDS011;36160;53.370;-6.196;2022-12-18T04:30:38;26.92;;;9.35;;
35919;SDS011;36160;53.370;-6.196;2022-12-18T04:33:08;33.55;;;9.13;;
35919;SDS011;36160;53.370;-6.196;2022-12-18T04:35:35;30.48;;;8.60;;
35919;SDS011;36160;53.370;-6.196;2022-12-18T04:38:00;24.10;;;8.18;;
35919;SDS011;36160;53.370;-6.196;2022-12-18T04:40:26;36.63;;;8.32;;
35919;SDS011;36160;53.370;-6.196;2022-12-18T04:42:52;21.35;;;7.75;;
35919;SDS011;36160;53.370;-6.196;2022-12-18T04:45:17;56.78;;;9.25;;
35919;SDS011;36160;53.370;-6.196;2022-12-18T04:47:43;26.75;;;9.02;;
35919;SDS011;36160;53.370;-6.196;2022-12-18T04:50:09;27.55;;;7.72;;
35919;SDS011;36160;53.370;-6.196;2022-12-18T04:52:35;32.03;;;8.18;;
35919;SDS011;36160;53.370;-6.196;2022-12-18T04:55:01;22.35;;;8.10;;
35919;SDS011;36160;53.370;-6.196;2022-12-18T04:57:27;32.40;;;8.65;;
35919;SDS011;36160;53.370;-6.196;2022-12-18T04:59:52;37.90;;;8.75;;
35919;SDS011;36160;53.370;-6.196;2022-12-18T05:02:18;30.85;;;9.52;;
35919;SDS011;36160;53.370;-6.196;2022-12-18T05:04:45;32.58;;;8.38;;
35919;SDS011;36160;53.370;-6.196;2022-12-18T05:07:11;32.00;;;10.63;;
35919;SDS011;36160;53.370;-6.196;2022-12-18T05:09:36;22.65;;;9.13;;
35919;SDS011;36160;53.370;-6.196;2022-12-18T05:12:02;39.47;;;8.95;;
35919;SDS011;36160;53.370;-6.196;2022-12-18T05:14:28;36.70;;;8.77;;
35919;SDS011;36160;53.370;-6.196;2022-12-18T05:16:54;37.28;;;11.13;;
35919;SDS011;36160;53.370;-6.196;2022-12-18T05:19:20;40.03;;;10.32;;
35919;SDS011;36160;53.370;-6.196;2022-12-18T05:21:46;34.10;;;10.27;;
35919;SDS011;36160;53.370;-6.196;2022-12-18T05:24:11;34.47;;;10.27;;
35919;SDS011;36160;53.370;-6.196;2022-12-18T05:26:37;28.42;;;7.57;;
35919;SDS011;36160;53.370;-6.196;2022-12-18T05:29:03;34.85;;;9.23;;
35919;SDS011;36160;53.370;-6.196;2022-12-18T05:31:29;24.60;;;7.88;;
35919;SDS011;36160;53.370;-6.196;2022-12-18T05:33:54;31.58;;;8.77;;
35919;SDS011;36160;53.370;-6.196;2022-12-18T05:36:20;30.90;;;8.43;;
35919;SDS011;36160;53.370;-6.196;2022-12-18T05:38:46;31.65;;;7.22;;
35919;SDS011;36160;53.370;-6.196;2022-12-18T05:41:12;32.65;;;7.50;;
35919;SDS011;36160;53.370;-6.196;2022-12-18T05:43:38;39.97;;;10.13;;
35919;SDS011;36160;53.370;-6.196;2022-12-18T05:46:08;24.90;;;8.32;;
35919;SDS011;36160;53.370;-6.196;2022-12-18T05:48:38;40.08;;;9.93;;
35919;SDS011;36160;53.370;-6.196;2022-12-18T05:51:08;22.52;;;6.75;;
35919;SDS011;36160;53.370;-6.196;2022-12-18T05:53:44;40.88;;;8.00;;
35919;SDS011;36160;53.370;-6.196;2022-12-18T05:56:12;29.23;;;9.60;;
35919;SDS011;36160;53.370;-6.196;2022-12-18T05:58:41;30.50;;;8.75;;
35919;SDS011;36160;53.370;-6.196;2022-12-18T06:01:09;40.33;;;9.30;;
35919;SDS011;36160;53.370;-6.196;2022-12-18T06:03:35;27.13;;;8.13;;
35919;SDS011;36160;53.370;-6.196;2022-12-18T06:06:01;26.67;;;7.35;;
35919;SDS011;36160;53.370;-6.196;2022-12-18T06:08:26;22.90;;;7.70;;
35919;SDS011;36160;53.370;-6.196;2022-12-18T06:10:52;24.75;;;7.80;;
35919;SDS011;36160;53.370;-6.196;2022-12-18T06:13:18;30.20;;;7.63;;
35919;SDS011;36160;53.370;-6.196;2022-12-18T06:15:44;28.00;;;8.23;;
35919;SDS011;36160;53.370;-6.196;2022-12-18T06:18:10;26.30;;;7.25;;
35919;SDS011;36160;53.370;-6.196;2022-12-18T06:20:36;34.78;;;8.70;;
35919;SDS011;36160;53.370;-6.196;2022-12-18T06:23:04;25.42;;;6.50;;
35919;SDS011;36160;53.370;-6.196;2022-12-18T06:25:30;40.75;;;8.07;;
35919;SDS011;36160;53.370;-6.196;2022-12-18T06:27:57;30.60;;;7.50;;
35919;SDS011;36160;53.370;-6.196;2022-12-18T06:30:22;29.50;;;9.27;;
35919;SDS011;36160;53.370;-6.196;2022-12-18T06:32:49;31.35;;;7.53;;
35919;SDS011;36160;53.370;-6.196;2022-12-18T06:35:14;31.92;;;9.02;;
35919;SDS011;36160;53.370;-6.196;2022-12-18T06:37:40;29.77;;;7.95;;
35919;SDS011;36160;53.370;-6.196;2022-12-18T06:40:06;32.78;;;7.88;;
35919;SDS011;36160;53.370;-6.196;2022-12-18T06:42:32;30.15;;;9.07;;
35919;SDS011;36160;53.370;-6.196;2022-12-18T06:44:58;38.75;;;7.15;;
35919;SDS011;36160;53.370;-6.196;2022-12-18T06:47:24;22.08;;;5.95;;
35919;SDS011;36160;53.370;-6.196;2022-12-18T06:49:49;14.90;;;4.93;;
35919;SDS011;36160;53.370;-6.196;2022-12-18T06:52:15;20.13;;;4.95;;
35919;SDS011;36160;53.370;-6.196;2022-12-18T06:54:40;19.40;;;4.57;;
35919;SDS011;36160;53.370;-6.196;2022-12-18T06:57:06;17.02;;;5.18;;
35919;SDS011;36160;53.370;-6.196;2022-12-18T06:59:32;18.23;;;4.43;;
35919;SDS011;36160;53.370;-6.196;2022-12-18T07:01:57;19.98;;;5.55;;
35919;SDS011;36160;53.370;-6.196;2022-12-18T07:04:27;12.48;;;3.97;;
35919;SDS011;36160;53.370;-6.196;2022-12-18T07:06:54;17.48;;;4.07;;
35919;SDS011;36160;53.370;-6.196;2022-12-18T07:09:19;13.07;;;3.45;;
35919;SDS011;36160;53.370;-6.196;2022-12-18T07:11:45;12.68;;;3.22;;
35919;SDS011;36160;53.370;-6.196;2022-12-18T07:14:11;13.45;;;3.55;;
35919;SDS011;36160;53.370;-6.196;2022-12-18T07:16:36;13.18;;;3.47;;
35919;SDS011;36160;53.370;-6.196;2022-12-18T07:19:02;17.65;;;5.70;;
35919;SDS011;36160;53.370;-6.196;2022-12-18T07:21:27;18.23;;;4.10;;
35919;SDS011;36160;53.370;-6.196;2022-12-18T07:23:53;14.43;;;5.03;;
35919;SDS011;36160;53.370;-6.196;2022-12-18T07:26:20;15.23;;;4.00;;
35919;SDS011;36160;53.370;-6.196;2022-12-18T07:28:47;23.63;;;6.25;;
35919;SDS011;36160;53.370;-6.196;2022-12-18T07:31:17;16.77;;;5.22;;
35919;SDS011;36160;53.370;-6.196;2022-12-18T07:33:45;25.05;;;5.68;;
35919;SDS011;36160;53.370;-6.196;2022-12-18T07:36:11;16.08;;;4.78;;
35919;SDS011;36160;53.370;-6.196;2022-12-18T07:38:37;26.52;;;6.88;;
35919;SDS011;36160;53.370;-6.196;2022-12-18T07:41:04;24.58;;;6.97;;
35919;SDS011;36160;53.370;-6.196;2022-12-18T07:43:31;34.20;;;7.90;;
35919;SDS011;36160;53.370;-6.196;2022-12-18T07:45:57;21.13;;;7.65;;
35919;SDS011;36160;53.370;-6.196;2022-12-18T07:48:23;22.67;;;6.70;;
35919;SDS011;36160;53.370;-6.196;2022-12-18T07:50:49;24.38;;;7.18;;
35919;SDS011;36160;53.370;-6.196;2022-12-18T07:53:17;18.63;;;5.85;;
35919;SDS011;36160;53.370;-6.196;2022-12-18T07:55:45;23.02;;;5.43;;
35919;SDS011;36160;53.370;-6.196;2022-12-18T07:58:11;23.90;;;8.10;;
35919;SDS011;36160;53.370;-6.196;2022-12-18T08:00:37;23.92;;;6.97;;
35919;SDS011;36160;53.370;-6.196;2022-12-18T08:03:03;22.20;;;7.05;;
35919;SDS011;36160;53.370;-6.196;2022-12-18T08:05:29;18.33;;;6.35;;
35919;SDS011;36160;53.370;-6.196;2022-12-18T08:07:55;29.52;;;7.22;;
35919;SDS011;36160;53.370;-6.196;2022-12-18T08:10:21;18.80;;;6.65;;
35919;SDS011;36160;53.370;-6.196;2022-12-18T08:12:50;25.90;;;7.65;;
35919;SDS011;36160;53.370;-6.196;2022-12-18T08:15:16;21.08;;;7.22;;
35919;SDS011;36160;53.370;-6.196;2022-12-18T08:17:42;30.00;;;8.02;;
35919;SDS011;36160;53.370;-6.196;2022-12-18T08:20:08;34.40;;;7.15;;
35919;SDS011;36160;53.370;-6.196;2022-12-18T08:22:34;22.40;;;7.68;;
35919;SDS011;36160;53.370;-6.196;2022-12-18T08:25:04;27.23;;;7.78;;
35919;SDS011;36160;53.370;-6.196;2022-12-18T08:27:30;33.15;;;8.45;;
35919;SDS011;36160;53.370;-6.196;2022-12-18T08:29:56;19.58;;;7.30;;
35919;SDS011;36160;53.370;-6.196;2022-12-18T08:32:22;24.42;;;7.18;;
35919;SDS011;36160;53.370;-6.196;2022-12-18T08:34:50;41.97;;;9.82;;
35919;SDS011;36160;53.370;-6.196;2022-12-18T08:37:15;31.23;;;10.60;;
35919;SDS011;36160;53.370;-6.196;2022-12-18T08:39:41;32.65;;;10.93;;
35919;SDS011;36160;53.370;-6.196;2022-12-18T08:42:07;41.65;;;9.75;;
35919;SDS011;36160;53.370;-6.196;2022-12-18T08:44:51;22.00;;;7.57;;
35919;SDS011;36160;53.370;-6.196;2022-12-18T08:47:18;39.58;;;8.73;;
35919;SDS011;36160;53.370;-6.196;2022-12-18T08:49:43;23.52;;;7.32;;
35919;SDS011;36160;53.370;-6.196;2022-12-18T08:52:09;23.63;;;8.85;;
35919;SDS011;36160;53.370;-6.196;2022-12-18T08:54:35;32.05;;;10.32;;
35919;SDS011;36160;53.370;-6.196;2022-12-18T08:57:01;39.03;;;10.85;;
35919;SDS011;36160;53.370;-6.196;2022-12-18T08:59:27;40.92;;;10.55;;
35919;SDS011;36160;53.370;-6.196;2022-12-18T09:01:54;42.40;;;10.88;;
35919;SDS011;36160;53.370;-6.196;2022-12-18T09:04:20;41.05;;;12.50;;
35919;SDS011;36160;53.370;-6.196;2022-12-18T09:06:46;34.30;;;11.85;;
35919;SDS011;36160;53.370;-6.196;2022-12-18T09:09:12;44.30;;;11.98;;
35919;SDS011;36160;53.370;-6.196;2022-12-18T09:11:37;36.03;;;12.40;;
35919;SDS011;36160;53.370;-6.196;2022-12-18T09:14:03;40.28;;;9.55;;
35919;SDS011;36160;53.370;-6.196;2022-12-18T09:16:30;44.83;;;11.10;;
35919;SDS011;36160;53.370;-6.196;2022-12-18T09:18:57;38.17;;;10.65;;
35919;SDS011;36160;53.370;-6.196;2022-12-18T09:21:29;44.00;;;11.50;;
35919;SDS011;36160;53.370;-6.196;2022-12-18T09:23:56;33.83;;;10.13;;
35919;SDS011;36160;53.370;-6.196;2022-12-18T09:26:23;36.20;;;10.55;;
35919;SDS011;36160;53.370;-6.196;2022-12-18T09:28:49;35.95;;;10.52;;
35919;SDS011;36160;53.370;-6.196;2022-12-18T09:31:16;45.03;;;13.25;;
35919;SDS011;36160;53.370;-6.196;2022-12-18T09:33:43;41.28;;;9.88;;
35919;SDS011;36160;53.370;-6.196;2022-12-18T09:36:11;39.13;;;10.18;;
35919;SDS011;36160;53.370;-6.196;2022-12-18T09:38:38;44.15;;;10.73;;
35919;SDS011;36160;53.370;-6.196;2022-12-18T09:44:02;36.35;;;9.75;;
35919;SDS011;36160;53.370;-6.196;2022-12-18T09:46:43;45.03;;;8.88;;
35919;SDS011;36160;53.370;-6.196;2022-12-18T09:49:38;33.83;;;9.82;;
35919;SDS011;36160;53.370;-6.196;2022-12-18T09:54:41;33.38;;;9.05;;
35919;SDS011;36160;53.370;-6.196;2022-12-18T09:57:15;38.00;;;9.68;;
35919;SDS011;36160;53.370;-6.196;2022-12-18T09:59:46;24.75;;;6.75;;
35919;SDS011;36160;53.370;-6.196;2022-12-18T10:02:20;50.08;;;9.65;;
35919;SDS011;36160;53.370;-6.196;2022-12-18T10:05:07;24.88;;;7.70;;
35919;SDS011;36160;53.370;-6.196;2022-12-18T10:10:52;44.83;;;10.63;;
35919;SDS011;36160;53.370;-6.196;2022-12-18T10:16:00;25.98;;;7.53;;
35919;SDS011;36160;53.370;-6.196;2022-12-18T10:21:21;31.92;;;8.60;;
35919;SDS011;36160;53.370;-6.196;2022-12-18T10:24:03;30.15;;;10.10;;
35919;SDS011;36160;53.370;-6.196;2022-12-18T10:26:38;27.27;;;8.50;;
35919;SDS011;36160;53.370;-6.196;2022-12-18T10:29:12;28.42;;;9.15;;
35919;SDS011;36160;53.370;-6.196;2022-12-18T10:31:39;24.08;;;9.20;;
35919;SDS011;36160;53.370;-6.196;2022-12-18T10:34:09;22.83;;;7.97;;
35919;SDS011;36160;53.370;-6.196;2022-12-18T10:36:38;32.70;;;9.82;;
35919;SDS011;36160;53.370;-6.196;2022-12-18T10:39:14;30.63;;;10.85;;
35919;SDS011;36160;53.370;-6.196;2022-12-18T10:41:43;35.35;;;9.90;;
35919;SDS011;36160;53.370;-6.196;2022-12-18T10:44:10;24.52;;;8.95;;
35919;SDS011;36160;53.370;-6.196;2022-12-18T10:46:40;30.20;;;9.98;;
35919;SDS011;36160;53.370;-6.196;2022-12-18T10:49:07;27.85;;;8.13;;
35919;SDS011;36160;53.370;-6.196;2022-12-18T10:51:49;40.38;;;11.60;;
35919;SDS011;36160;53.370;-6.196;2022-12-18T10:54:20;26.98;;;9.52;;
35919;SDS011;36160;53.370;-6.196;2022-12-18T10:56:47;33.28;;;8.32;;
35919;SDS011;36160;53.370;-6.196;2022-12-18T10:59:14;31.05;;;8.35;;
35919;SDS011;36160;53.370;-6.196;2022-12-18T11:04:37;27.85;;;8.98;;
35919;SDS011;36160;53.370;-6.196;2022-12-18T11:07:14;42.42;;;10.85;;
35919;SDS011;36160;53.370;-6.196;2022-12-18T11:09:40;23.60;;;8.93;;
35919;SDS011;36160;53.370;-6.196;2022-12-18T11:12:15;24.95;;;9.02;;
35919;SDS011;36160;53.370;-6.196;2022-12-18T11:17:16;29.73;;;9.60;;
35919;SDS011;36160;53.370;-6.196;2022-12-18T11:19:45;33.42;;;10.80;;
35919;SDS011;36160;53.370;-6.196;2022-12-18T11:22:28;44.08;;;13.05;;
35919;SDS011;36160;53.370;-6.196;2022-12-18T11:25:16;45.05;;;11.40;;
35919;SDS011;36160;53.370;-6.196;2022-12-18T11:33:34;40.40;;;10.45;;
35919;SDS011;36160;53.370;-6.196;2022-12-18T11:36:02;28.27;;;10.38;;
35919;SDS011;36160;53.370;-6.196;2022-12-18T11:38:30;44.28;;;11.85;;
35919;SDS011;36160;53.370;-6.196;2022-12-18T11:44:24;39.55;;;11.27;;
35919;SDS011;36160;53.370;-6.196;2022-12-18T11:47:29;58.03;;;12.15;;
35919;SDS011;36160;53.370;-6.196;2022-12-18T11:50:20;36.50;;;11.63;;
35919;SDS011;36160;53.370;-6.196;2022-12-18T11:53:00;26.13;;;9.05;;
35919;SDS011;36160;53.370;-6.196;2022-12-18T12:00:49;35.53;;;7.80;;
35919;SDS011;36160;53.370;-6.196;2022-12-18T12:04:00;44.35;;;9.68;;
35919;SDS011;36160;53.370;-6.196;2022-12-18T12:06:26;32.33;;;9.38;;
35919;SDS011;36160;53.370;-6.196;2022-12-18T12:27:53;38.90;;;7.18;;
35919;SDS011;36160;53.370;-6.196;2022-12-18T12:38:41;22.75;;;5.55;;
35919;SDS011;36160;53.370;-6.196;2022-12-18T12:41:15;30.52;;;7.20;;
35919;SDS011;36160;53.370;-6.196;2022-12-18T12:44:05;31.25;;;6.10;;
35919;SDS011;36160;53.370;-6.196;2022-12-18T12:46:36;33.00;;;5.93;;
35919;SDS011;36160;53.370;-6.196;2022-12-18T12:49:24;44.00;;;5.97;;
35919;SDS011;36160;53.370;-6.196;2022-12-18T12:51:57;21.98;;;5.93;;
35919;SDS011;36160;53.370;-6.196;2022-12-18T12:54:26;25.55;;;6.78;;
35919;SDS011;36160;53.370;-6.196;2022-12-18T12:56:58;20.17;;;5.70;;
35919;SDS011;36160;53.370;-6.196;2022-12-18T12:59:40;21.45;;;4.32;;
35919;SDS011;36160;53.370;-6.196;2022-12-18T13:02:21;27.75;;;6.88;;
35919;SDS011;36160;53.370;-6.196;2022-12-18T13:07:49;27.55;;;5.82;;
35919;SDS011;36160;53.370;-6.196;2022-12-18T13:12:54;20.15;;;5.32;;
35919;SDS011;36160;53.370;-6.196;2022-12-18T13:15:28;16.92;;;4.15;;
35919;SDS011;36160;53.370;-6.196;2022-12-18T13:18:10;18.75;;;4.38;;
35919;SDS011;36160;53.370;-6.196;2022-12-18T13:20:41;16.80;;;3.22;;
35919;SDS011;36160;53.370;-6.196;2022-12-18T13:25:51;18.85;;;4.15;;
35919;SDS011;36160;53.370;-6.196;2022-12-18T13:29:06;20.60;;;4.00;;
35919;SDS011;36160;53.370;-6.196;2022-12-18T13:33:41;19.23;;;6.13;;
35919;SDS011;36160;53.370;-6.196;2022-12-18T13:38:36;24.58;;;3.85;;
35919;SDS011;36160;53.370;-6.196;2022-12-18T13:43:45;16.30;;;4.20;;
35919;SDS011;36160;53.370;-6.196;2022-12-18T13:51:39;24.92;;;4.43;;
35919;SDS011;36160;53.370;-6.196;2022-12-18T13:54:19;15.77;;;4.57;;
35919;SDS011;36160;53.370;-6.196;2022-12-18T13:57:04;19.98;;;5.13;;
35919;SDS011;36160;53.370;-6.196;2022-12-18T13:59:48;23.08;;;5.10;;
35919;SDS011;36160;53.370;-6.196;2022-12-18T14:02:15;20.35;;;3.83;;
35919;SDS011;36160;53.370;-6.196;2022-12-18T14:04:46;21.23;;;3.80;;
35919;SDS011;36160;53.370;-6.196;2022-12-18T14:07:14;24.63;;;4.90;;
35919;SDS011;36160;53.370;-6.196;2022-12-18T14:09:41;28.92;;;5.30;;
35919;SDS011;36160;53.370;-6.196;2022-12-18T14:12:16;19.38;;;4.40;;
35919;SDS011;36160;53.370;-6.196;2022-12-18T14:15:00;18.83;;;3.90;;
35919;SDS011;36160;53.370;-6.196;2022-12-18T14:17:27;23.63;;;6.20;;
35919;SDS011;36160;53.370;-6.196;2022-12-18T14:19:53;32.72;;;6.50;;
35919;SDS011;36160;53.370;-6.196;2022-12-18T14:22:20;33.10;;;5.72;;
35919;SDS011;36160;53.370;-6.196;2022-12-18T14:27:37;24.77;;;5.60;;
35919;SDS011;36160;53.370;-6.196;2022-12-18T14:33:05;26.73;;;6.35;;
35919;SDS011;36160;53.370;-6.196;2022-12-18T14:35:41;25.95;;;7.10;;
35919;SDS011;36160;53.370;-6.196;2022-12-18T14:43:39;36.75;;;7.78;;
35919;SDS011;36160;53.370;-6.196;2022-12-18T14:46:25;31.65;;;5.95;;
35919;SDS011;36160;53.370;-6.196;2022-12-18T14:49:30;27.95;;;6.95;;
35919;SDS011;36160;53.370;-6.196;2022-12-18T14:52:01;43.78;;;7.75;;
35919;SDS011;36160;53.370;-6.196;2022-12-18T14:57:06;37.90;;;8.70;;
35919;SDS011;36160;53.370;-6.196;2022-12-18T14:59:45;33.88;;;6.50;;
35919;SDS011;36160;53.370;-6.196;2022-12-18T15:07:41;25.08;;;6.00;;
35919;SDS011;36160;53.370;-6.196;2022-12-18T15:18:00;24.90;;;7.57;;
35919;SDS011;36160;53.370;-6.196;2022-12-18T15:20:30;34.65;;;7.43;;
35919;SDS011;36160;53.370;-6.196;2022-12-18T15:22:57;33.13;;;6.18;;
35919;SDS011;36160;53.370;-6.196;2022-12-18T15:25:34;25.25;;;6.85;;
35919;SDS011;36160;53.370;-6.196;2022-12-18T15:28:02;31.00;;;6.97;;
35919;SDS011;36160;53.370;-6.196;2022-12-18T15:30:40;33.72;;;7.00;;
35919;SDS011;36160;53.370;-6.196;2022-12-18T15:33:26;32.63;;;5.85;;
35919;SDS011;36160;53.370;-6.196;2022-12-18T15:35:59;29.73;;;6.93;;
35919;SDS011;36160;53.370;-6.196;2022-12-18T15:38:26;33.53;;;7.82;;
35919;SDS011;36160;53.370;-6.196;2022-12-18T15:40:52;48.38;;;8.05;;
35919;SDS011;36160;53.370;-6.196;2022-12-18T15:43:22;48.28;;;9.07;;
35919;SDS011;36160;53.370;-6.196;2022-12-18T15:46:02;59.55;;;9.85;;
35919;SDS011;36160;53.370;-6.196;2022-12-18T15:48:34;71.05;;;9.98;;
35919;SDS011;36160;53.370;-6.196;2022-12-18T15:51:04;65.60;;;10.90;;
35919;SDS011;36160;53.370;-6.196;2022-12-18T15:53:36;57.35;;;9.98;;
35919;SDS011;36160;53.370;-6.196;2022-12-18T15:56:04;57.97;;;8.25;;
35919;SDS011;36160;53.370;-6.196;2022-12-18T15:58:51;54.67;;;9.90;;
35919;SDS011;36160;53.370;-6.196;2022-12-18T16:01:16;59.95;;;10.73;;
35919;SDS011;36160;53.370;-6.196;2022-12-18T16:03:42;30.80;;;7.65;;
35919;SDS011;36160;53.370;-6.196;2022-12-18T16:06:08;47.40;;;9.30;;
35919;SDS011;36160;53.370;-6.196;2022-12-18T16:08:35;40.97;;;7.93;;
35919;SDS011;36160;53.370;-6.196;2022-12-18T16:11:00;50.65;;;10.23;;
35919;SDS011;36160;53.370;-6.196;2022-12-18T16:13:26;63.38;;;10.98;;
35919;SDS011;36160;53.370;-6.196;2022-12-18T16:15:52;71.53;;;13.10;;
35919;SDS011;36160;53.370;-6.196;2022-12-18T16:18:18;92.72;;;12.82;;
35919;SDS011;36160;53.370;-6.196;2022-12-18T16:20:44;72.30;;;9.27;;
35919;SDS011;36160;53.370;-6.196;2022-12-18T16:23:17;92.53;;;11.35;;
35919;SDS011;36160;53.370;-6.196;2022-12-18T16:25:45;83.68;;;11.45;;
35919;SDS011;36160;53.370;-6.196;2022-12-18T16:28:14;72.85;;;9.88;;
35919;SDS011;36160;53.370;-6.196;2022-12-18T16:30:40;61.72;;;11.45;;
35919;SDS011;36160;53.370;-6.196;2022-12-18T16:33:05;68.18;;;10.13;;
35919;SDS011;36160;53.370;-6.196;2022-12-18T16:35:31;62.95;;;9.75;;
35919;SDS011;36160;53.370;-6.196;2022-12-18T16:37:59;56.47;;;10.00;;
35919;SDS011;36160;53.370;-6.196;2022-12-18T16:40:30;72.10;;;12.25;;